Time;durP1;ratioP1;P1;durP2;ratioP2;P2;SDS_P1;SDS_P2;PMS_P1;PMS_P2;Temp;Humidity;BMP_temperature;BMP_pressure;BME280_temperature;BME280_humidity;BME280_pressure;Samples;Min_cycle;Max_cycle;Signal;HPM_P1;HPM_P2
2022/04/26 03:36:11;;;;;;;0.30;0.30;;;8.10;99.90;;;;;;4922750;29;20031;-73
2022/04/26 03:38:43;;;;;;;0.22;0.22;;;8.10;99.90;;;;;;4912375;29;20025;-73
2022/04/26 03:41:10;;;;;;;1.55;0.30;;;8.00;99.90;;;;;;4904084;29;20039;-72
2022/04/26 03:43:37;;;;;;;0.57;0.57;;;8.00;99.90;;;;;;4887228;29;20071;-73
2022/04/26 03:46:03;;;;;;;1.85;0.95;;;7.90;99.90;;;;;;4904510;29;20035;-74
2022/04/26 03:48:29;;;;;;;0.20;0.20;;;7.80;99.90;;;;;;4903812;29;20029;-76
2022/04/26 03:50:54;;;;;;;14.27;1.90;;;7.80;99.90;;;;;;4904002;29;20037;-77
2022/04/26 03:53:20;;;;;;;0.30;0.30;;;7.80;99.90;;;;;;4902559;29;20033;-73
2022/04/26 03:55:46;;;;;;;0.88;0.88;;;7.80;99.90;;;;;;4903851;29;20031;-73
2022/04/26 03:58:12;;;;;;;0.22;0.22;;;7.80;99.90;;;;;;4901996;29;20512;-73
2022/04/26 04:00:38;;;;;;;1.08;0.77;;;7.80;99.90;;;;;;4903712;29;20035;-73
2022/04/26 04:03:04;;;;;;;2.83;1.48;;;7.80;99.90;;;;;;4903976;29;20066;-73
2022/04/26 04:05:30;;;;;;;0.40;0.40;;;7.80;99.90;;;;;;4902522;29;20400;-73
2022/04/26 04:07:55;;;;;;;1.13;1.10;;;7.70;99.90;;;;;;4903824;29;20039;-73
2022/04/26 04:10:21;;;;;;;0.60;0.60;;;7.70;99.90;;;;;;4903779;29;20412;-73
2022/04/26 04:12:47;;;;;;;0.40;0.40;;;7.70;99.90;;;;;;4903374;29;20036;-73
2022/04/26 04:15:13;;;;;;;1.08;0.85;;;7.70;99.90;;;;;;4903182;29;20488;-72
2022/04/26 04:17:38;;;;;;;0.25;0.25;;;7.70;99.90;;;;;;4903736;29;20037;-73
2022/04/26 04:20:04;;;;;;;1.45;0.95;;;7.70;99.90;;;;;;4898281;29;20061;-75
2022/04/26 04:22:30;;;;;;;0.52;0.52;;;7.60;99.90;;;;;;4900896;29;20033;-73
2022/04/26 04:24:56;;;;;;;0.35;0.35;;;7.60;99.90;;;;;;4900788;29;20547;-73
2022/04/26 04:27:21;;;;;;;0.20;0.20;;;7.60;99.90;;;;;;4900635;29;20456;-73
2022/04/26 04:29:47;;;;;;;0.68;0.68;;;7.60;99.90;;;;;;4899948;29;20510;-72
2022/04/26 04:32:13;;;;;;;0.70;0.70;;;7.60;99.90;;;;;;4908127;29;20040;-73
2022/04/26 04:34:39;;;;;;;1.55;0.75;;;7.70;99.90;;;;;;4918270;29;20060;-72
2022/04/26 04:37:05;;;;;;;0.65;0.63;;;7.70;99.90;;;;;;4922701;29;20032;-73
2022/04/26 04:39:31;;;;;;;0.80;0.70;;;7.60;99.90;;;;;;4937992;29;20554;-73
2022/04/26 04:41:56;;;;;;;1.17;0.80;;;7.60;99.90;;;;;;4938126;29;20068;-76
2022/04/26 04:44:22;;;;;;;0.15;0.15;;;7.60;99.90;;;;;;4938063;29;20039;-73
2022/04/26 04:46:49;;;;;;;0.20;0.20;;;7.60;99.90;;;;;;4937879;29;20071;-73
2022/04/26 04:49:15;;;;;;;4.20;2.20;;;7.60;99.90;;;;;;4937850;29;20102;-73
2022/04/26 04:51:40;;;;;;;0.90;0.90;;;7.50;99.90;;;;;;4938092;29;20148;-73
2022/04/26 04:54:06;;;;;;;1.80;1.15;;;7.50;99.90;;;;;;4924434;29;20150;-73
2022/04/26 04:56:32;;;;;;;0.40;0.40;;;7.60;99.90;;;;;;4902742;29;20088;-73
2022/04/26 04:58:57;;;;;;;1.02;1.02;;;7.60;99.90;;;;;;4898615;29;20076;-77
2022/04/26 05:01:23;;;;;;;1.15;0.73;;;7.60;99.90;;;;;;4899795;29;20040;-72
2022/04/26 05:03:50;;;;;;;2.15;0.50;;;7.60;99.90;;;;;;4898523;29;20035;-76
2022/04/26 05:06:16;;;;;;;0.30;0.30;;;7.60;99.90;;;;;;4898342;29;20072;-76
2022/04/26 05:08:44;;;;;;;1.75;0.75;;;7.60;99.90;;;;;;4899135;29;20033;-75
2022/04/26 05:11:10;;;;;;;0.50;0.50;;;7.60;99.90;;;;;;4899998;29;20031;-76
2022/04/26 05:13:36;;;;;;;0.10;0.10;;;7.60;99.90;;;;;;4900573;29;20024;-77
2022/04/26 05:16:01;;;;;;;0.43;0.40;;;7.60;99.90;;;;;;4899750;29;20580;-77
2022/04/26 05:18:28;;;;;;;0.55;0.40;;;7.60;99.90;;;;;;4899742;29;20056;-76
2022/04/26 05:20:54;;;;;;;3.47;2.05;;;7.60;99.90;;;;;;4899144;29;20024;-76
2022/04/26 05:26:04;;;;;;;0.68;0.60;;;7.50;99.90;;;;;;4899083;29;20427;-76
2022/04/26 05:28:33;;;;;;;0.30;0.30;;;7.60;99.90;;;;;;4897271;29;20028;-73
2022/04/26 05:30:58;;;;;;;0.45;0.45;;;7.60;99.90;;;;;;4898669;29;20032;-76
2022/04/26 05:33:26;;;;;;;1.27;1.17;;;7.60;99.90;;;;;;4913015;29;20043;-76
2022/04/26 05:35:52;;;;;;;0.65;0.63;;;7.70;99.90;;;;;;4928913;29;20035;-76
2022/04/26 05:38:18;;;;;;;10.23;2.33;;;7.70;99.90;;;;;;4919858;29;20407;-76
2022/04/26 05:40:44;;;;;;;0.20;0.20;;;7.70;99.90;;;;;;4936899;29;20486;-76
2022/04/26 05:43:10;;;;;;;1.27;0.50;;;7.80;99.90;;;;;;4935903;29;20051;-73
2022/04/26 05:45:36;;;;;;;0.32;0.32;;;7.80;99.90;;;;;;4936881;29;20027;-76
2022/04/26 05:48:02;;;;;;;0.25;0.20;;;7.90;99.90;;;;;;4934774;29;20404;-76
2022/04/26 05:50:27;;;;;;;0.73;0.73;;;8.00;99.90;;;;;;4919119;29;20538;-73
2022/04/26 05:52:53;;;;;;;0.47;0.47;;;8.00;99.90;;;;;;4914046;29;20115;-76
2022/04/26 05:55:19;;;;;;;2.53;1.75;;;8.10;99.90;;;;;;4930827;29;20032;-76
2022/04/26 05:57:45;;;;;;;1.27;0.60;;;8.10;99.90;;;;;;4936571;29;20071;-73
2022/04/26 06:00:13;;;;;;;2.00;1.83;;;8.20;99.90;;;;;;4934168;29;20031;-73
2022/04/26 06:02:39;;;;;;;2.28;0.68;;;8.30;99.90;;;;;;4934640;29;20028;-72
2022/04/26 06:05:08;;;;;;;1.00;0.93;;;8.30;99.90;;;;;;4928870;29;20028;-75
2022/04/26 06:07:33;;;;;;;0.50;0.32;;;8.40;99.90;;;;;;4898029;29;20102;-72
2022/04/26 06:09:59;;;;;;;1.80;1.02;;;8.40;99.90;;;;;;4897727;29;20048;-76
2022/04/26 06:12:28;;;;;;;0.68;0.68;;;8.50;99.90;;;;;;4898374;29;20476;-75
2022/04/26 06:14:55;;;;;;;0.40;0.40;;;8.60;99.90;;;;;;4896565;29;20115;-75
2022/04/26 06:17:20;;;;;;;0.82;0.73;;;8.70;99.90;;;;;;4918782;29;20453;-72
2022/04/26 06:19:46;;;;;;;1.05;0.90;;;8.80;99.90;;;;;;4920528;29;20028;-72
2022/04/26 06:22:12;;;;;;;3.35;1.10;;;8.90;99.90;;;;;;4916007;29;20059;-72
2022/04/26 06:24:38;;;;;;;0.73;0.65;;;8.90;99.90;;;;;;4932371;29;20059;-77
2022/04/26 06:27:04;;;;;;;10.32;2.08;;;9.00;99.90;;;;;;4933995;29;20138;-75
2022/04/26 06:29:29;;;;;;;0.93;0.65;;;9.10;99.90;;;;;;4901658;29;20092;-74
2022/04/26 06:31:55;;;;;;;0.65;0.40;;;9.20;99.90;;;;;;4908326;29;20020;-73
2022/04/26 06:34:21;;;;;;;0.77;0.68;;;9.20;99.90;;;;;;4931971;29;20035;-74
2022/04/26 06:36:47;;;;;;;0.20;0.20;;;9.30;99.90;;;;;;4917238;29;20507;-75
2022/04/26 06:39:13;;;;;;;1.23;0.50;;;9.40;99.90;;;;;;4918256;29;20028;-73
2022/04/26 06:41:38;;;;;;;0.75;0.75;;;9.50;99.90;;;;;;4907963;29;20388;-73
2022/04/26 06:44:04;;;;;;;2.60;0.73;;;9.50;99.90;;;;;;4913302;29;20036;-73
2022/04/26 06:46:30;;;;;;;1.45;0.77;;;9.60;99.90;;;;;;4913425;29;20029;-75
2022/04/26 06:49:00;;;;;;;0.82;0.82;;;9.70;99.90;;;;;;4923263;29;20358;-73
2022/04/26 06:51:26;;;;;;;1.17;0.90;;;9.80;99.90;;;;;;4913720;29;20028;-73
2022/04/26 06:53:51;;;;;;;0.60;0.60;;;9.90;99.90;;;;;;4898739;29;20104;-75
2022/04/26 06:56:17;;;;;;;0.43;0.43;;;10.10;99.90;;;;;;4895227;29;20107;-74
2022/04/26 06:58:43;;;;;;;0.65;0.65;;;10.20;99.90;;;;;;4900807;29;20116;-73
2022/04/26 07:01:09;;;;;;;0.30;0.30;;;10.20;99.90;;;;;;4907129;29;20079;-73
2022/04/26 07:03:34;;;;;;;0.52;0.52;;;10.30;99.90;;;;;;4927382;29;20080;-73
2022/04/26 07:06:00;;;;;;;0.60;0.60;;;10.40;99.90;;;;;;4913345;29;20467;-73
2022/04/26 07:08:26;;;;;;;1.95;0.77;;;10.50;99.90;;;;;;4929194;29;20103;-73
2022/04/26 07:10:51;;;;;;;0.20;0.20;;;10.60;99.90;;;;;;4908100;29;20032;-73
2022/04/26 07:13:21;;;;;;;3.42;1.05;;;10.80;99.90;;;;;;4912914;29;20500;-73
2022/04/26 07:15:47;;;;;;;1.10;0.93;;;11.00;99.90;;;;;;4910337;29;20062;-73
2022/04/26 07:18:13;;;;;;;0.63;0.57;;;11.00;99.90;;;;;;4908704;29;20068;-75
2022/04/26 07:20:39;;;;;;;1.05;1.02;;;11.10;99.90;;;;;;4926912;29;20079;-73
2022/04/26 07:23:05;;;;;;;1.30;0.95;;;11.20;99.90;;;;;;4916667;29;20024;-73
2022/04/26 07:25:31;;;;;;;3.30;1.50;;;11.40;99.90;;;;;;4929983;29;20035;-73
2022/04/26 07:27:56;;;;;;;0.55;0.55;;;11.50;99.90;;;;;;4910039;29;20923;-77
2022/04/26 07:30:22;;;;;;;0.75;0.55;;;11.60;99.90;;;;;;4898371;29;20036;-74
2022/04/26 07:35:32;;;;;;;0.47;0.47;;;11.80;99.90;;;;;;4906220;29;20043;-75
2022/04/26 07:38:05;;;;;;;0.95;0.95;;;12.00;99.90;;;;;;4912256;29;20024;-73
2022/04/26 07:40:32;;;;;;;0.55;0.55;;;12.10;99.90;;;;;;4931128;29;20432;-73
2022/04/26 07:42:58;;;;;;;1.40;1.02;;;12.30;99.90;;;;;;4925779;29;20207;-77
2022/04/26 07:45:24;;;;;;;1.42;1.23;;;12.50;99.90;;;;;;4919386;29;20074;-74
2022/04/26 07:47:50;;;;;;;0.90;0.77;;;12.60;99.90;;;;;;4922187;29;20449;-73
2022/04/26 07:50:16;;;;;;;0.70;0.52;;;12.80;99.90;;;;;;4897520;29;20028;-74
2022/04/26 07:52:42;;;;;;;2.20;1.30;;;13.00;99.90;;;;;;4901311;29;20537;-74
2022/04/26 07:55:08;;;;;;;8.32;1.48;;;13.50;99.90;;;;;;4914739;29;20036;-74
2022/04/26 07:57:34;;;;;;;6.95;1.13;;;15.10;99.90;;;;;;4926463;29;20046;-78
2022/04/26 08:00:00;;;;;;;3.53;1.65;;;17.60;99.90;;;;;;4905470;29;20032;-76
2022/04/26 08:02:26;;;;;;;3.75;2.30;;;19.40;99.90;;;;;;4897046;29;20088;-74
2022/04/26 08:04:54;;;;;;;2.70;1.83;;;20.70;99.90;;;;;;4901850;29;20040;-75
2022/04/26 08:07:19;;;;;;;4.97;2.03;;;21.50;99.70;;;;;;4897257;29;20024;-75
2022/04/26 08:09:45;;;;;;;5.05;2.42;;;22.20;98.60;;;;;;4900619;29;20035;-75
2022/04/26 08:12:11;;;;;;;3.35;1.52;;;22.50;97.80;;;;;;4912167;29;20511;-74
2022/04/26 08:14:37;;;;;;;3.85;1.77;;;22.70;97.40;;;;;;4904304;29;20025;-76
2022/04/26 08:17:03;;;;;;;4.72;2.10;;;23.10;96.50;;;;;;4901651;29;20427;-77
2022/04/26 08:19:29;;;;;;;4.70;2.22;;;23.50;96.20;;;;;;4905760;29;20024;-74
2022/04/26 08:21:54;;;;;;;4.53;1.50;;;23.90;95.50;;;;;;4912282;29;20024;-75
2022/04/26 08:27:23;;;;;;;2.15;1.65;;;24.50;95.00;;;;;;4902541;29;20492;-75
2022/04/26 08:29:53;;;;;;;4.18;2.25;;;25.00;94.40;;;;;;4897149;29;20036;-77
2022/04/26 08:32:19;;;;;;;3.45;2.00;;;25.40;93.30;;;;;;4897052;29;20112;-75
2022/04/26 08:34:45;;;;;;;3.95;2.05;;;25.20;94.10;;;;;;4897002;29;20483;-75
2022/04/26 08:37:10;;;;;;;3.70;1.98;;;25.50;93.30;;;;;;4899528;29;20593;-75
2022/04/26 08:39:36;;;;;;;5.90;2.35;;;26.10;92.90;;;;;;4924751;29;20151;-76
2022/04/26 08:42:04;;;;;;;2.97;2.00;;;26.00;92.70;;;;;;4930435;29;20745;-78
2022/04/26 08:44:30;;;;;;;5.82;3.33;;;26.50;92.40;;;;;;4921619;29;20062;-78
2022/04/26 08:52:26;;;;;;;8.20;3.28;;;26.20;91.70;;;;;;4907123;29;20399;-78
2022/04/26 08:54:52;;;;;;;4.10;3.15;;;26.40;91.90;;;;;;4912959;29;20032;-75
2022/04/26 08:57:18;;;;;;;3.20;2.00;;;26.60;91.60;;;;;;4899025;29;20033;-76
2022/04/26 08:59:51;;;;;;;2.33;1.85;;;26.90;91.40;;;;;;4895006;29;20096;-76
2022/04/26 09:02:22;;;;;;;6.22;2.30;;;27.20;91.10;;;;;;4906347;29;20028;-79
2022/04/26 09:05:02;;;;;;;2.65;2.17;;;27.00;90.90;;;;;;4916003;29;20118;-78
2022/04/26 09:07:37;;;;;;;3.65;1.98;;;27.20;90.90;;;;;;4911817;29;20034;-79
2022/04/26 09:10:13;;;;;;;2.65;1.88;;;27.40;90.50;;;;;;4897794;29;20043;-79
2022/04/26 09:13:07;;;;;;;4.47;2.50;;;27.80;90.20;;;;;;4911882;29;20024;-76
2022/04/26 09:15:43;;;;;;;10.77;2.70;;;27.60;90.00;;;;;;4907179;29;20033;-78
2022/04/26 09:18:27;;;;;;;4.78;2.83;;;27.60;90.20;;;;;;4904272;29;20392;-76
2022/04/26 09:20:58;;;;;;;3.25;2.35;;;27.50;90.20;;;;;;4910970;29;20432;-79
2022/04/26 09:23:28;;;;;;;12.35;2.80;;;27.50;90.00;;;;;;4915161;29;20060;-79
2022/04/26 09:26:07;;;;;;;7.53;2.50;;;27.70;89.30;;;;;;4915201;29;20100;-76
2022/04/26 09:28:35;;;;;;;3.00;2.33;;;27.90;89.60;;;;;;4916775;29;20095;-79
2022/04/26 09:31:00;;;;;;;7.45;2.90;;;28.20;88.80;;;;;;4916128;29;20028;-79
2022/04/26 09:33:38;;;;;;;3.22;2.10;;;28.00;87.60;;;;;;4914082;29;20040;-79
2022/04/26 09:36:14;;;;;;;5.00;2.55;;;28.20;88.20;;;;;;4913148;29;20082;-79
2022/04/26 09:38:48;;;;;;;4.57;2.20;;;28.50;87.80;;;;;;4923919;29;20090;-76
2022/04/26 09:41:13;;;;;;;5.95;2.78;;;28.20;86.80;;;;;;4913288;29;20059;-80
2022/04/26 09:43:40;;;;;;;15.07;3.22;;;28.40;87.20;;;;;;4896796;29;20480;-79
2022/04/26 09:46:07;;;;;;;2.78;2.47;;;28.20;86.20;;;;;;4912778;29;20530;-73
2022/04/26 09:48:35;;;;;;;3.50;2.15;;;28.40;84.50;;;;;;4932393;29;20030;-77
2022/04/26 09:51:05;;;;;;;3.40;2.10;;;28.10;84.20;;;;;;4933081;29;20426;-76
2022/04/26 09:53:35;;;;;;;5.32;2.00;;;28.20;84.60;;;;;;4923341;29;20025;-75
2022/04/26 09:56:03;;;;;;;5.47;2.47;;;28.00;84.60;;;;;;4922673;29;20028;-79
2022/04/26 09:58:29;;;;;;;2.58;1.50;;;28.30;84.50;;;;;;4920952;29;20518;-76
2022/04/26 10:01:01;;;;;;;3.70;2.10;;;28.30;82.80;;;;;;4918267;29;20039;-75
2022/04/26 10:03:37;;;;;;;3.55;1.90;;;28.40;83.20;;;;;;4908612;29;20414;-76
2022/04/26 10:06:05;;;;;;;2.47;1.75;;;28.40;83.60;;;;;;4913521;29;20495;-73
2022/04/26 10:08:34;;;;;;;2.28;1.63;;;28.70;81.50;;;;;;4908495;29;20396;-77
2022/04/26 10:11:00;;;;;;;3.22;1.67;;;28.40;81.50;;;;;;4913329;29;20032;-77
2022/04/26 10:13:42;;;;;;;2.35;1.67;;;28.10;81.40;;;;;;4929974;29;20031;-76
2022/04/26 10:16:21;;;;;;;1.95;1.30;;;28.00;80.70;;;;;;4895339;29;20029;-75
2022/04/26 10:18:48;;;;;;;9.07;1.90;;;27.90;81.80;;;;;;4904908;29;20028;-75
2022/04/26 10:21:22;;;;;;;2.33;1.70;;;27.50;81.60;;;;;;4900060;29;20039;-78
2022/04/26 10:23:51;;;;;;;2.15;1.58;;;27.80;81.70;;;;;;4904452;29;20492;-79
2022/04/26 10:26:22;;;;;;;5.90;2.13;;;27.80;81.50;;;;;;4901908;29;20214;-80
2022/04/26 10:29:08;;;;;;;2.05;1.35;;;27.70;81.30;;;;;;4915076;29;20075;-75
2022/04/26 10:31:40;;;;;;;1.42;1.30;;;27.50;82.20;;;;;;4896741;29;20032;-75
2022/04/26 10:34:18;;;;;;;3.33;1.52;;;26.90;82.20;;;;;;4913938;29;20040;-80
2022/04/26 10:37:18;;;;;;;1.35;1.00;;;27.10;81.80;;;;;;4905341;29;20024;-80
2022/04/26 10:39:46;;;;;;;3.90;2.33;;;26.70;81.80;;;;;;4893208;29;20132;-74
2022/04/26 10:42:15;;;;;;;3.95;2.45;;;26.40;82.10;;;;;;4896458;29;20032;-76
2022/04/26 10:44:48;;;;;;;2.83;1.40;;;26.40;82.20;;;;;;4895137;29;20115;-76
2022/04/26 10:47:22;;;;;;;1.30;1.17;;;26.70;82.20;;;;;;4895181;29;20535;-75
2022/04/26 10:49:49;;;;;;;1.77;1.67;;;26.80;82.50;;;;;;4898586;29;20104;-79
2022/04/26 10:52:17;;;;;;;3.30;1.95;;;26.70;81.70;;;;;;4912578;29;20035;-75
2022/04/26 10:54:51;;;;;;;3.50;1.95;;;26.70;82.10;;;;;;4892986;29;20028;-75
2022/04/26 10:57:28;;;;;;;3.47;2.72;;;26.90;81.00;;;;;;4899018;29;20480;-75
2022/04/26 11:00:13;;;;;;;1.23;1.10;;;26.90;81.00;;;;;;4897662;29;20032;-76
2022/04/26 11:02:41;;;;;;;2.47;2.08;;;26.50;83.10;;;;;;4914354;29;20439;-79
2022/04/26 11:05:13;;;;;;;2.28;1.33;;;26.20;83.30;;;;;;4905403;29;20406;-79
2022/04/26 11:07:41;;;;;;;3.70;2.15;;;26.20;83.00;;;;;;4900818;29;20028;-76
2022/04/26 11:10:09;;;;;;;6.82;1.60;;;26.00;82.80;;;;;;4910700;29;20079;-79
2022/04/26 11:12:37;;;;;;;9.82;1.55;;;25.50;82.20;;;;;;4914056;29;20087;-75
2022/04/26 11:15:11;;;;;;;3.50;1.75;;;25.50;83.40;;;;;;4913791;29;20487;-75
2022/04/26 11:17:38;;;;;;;1.27;1.10;;;25.00;83.70;;;;;;4900184;29;20043;-78
2022/04/26 11:20:09;;;;;;;1.88;1.75;;;24.70;86.00;;;;;;4894480;29;20048;-75
2022/04/26 11:22:45;;;;;;;5.43;1.95;;;24.30;86.40;;;;;;4897766;29;20031;-75
2022/04/26 11:28:09;;;;;;;1.83;1.10;;;24.50;86.90;;;;;;4933906;29;20103;-79
2022/04/26 11:30:45;;;;;;;3.05;1.70;;;25.10;86.10;;;;;;4915488;29;20032;-74
2022/04/26 11:33:14;;;;;;;0.93;0.82;;;26.10;83.10;;;;;;4934643;29;20031;-78
2022/04/26 11:35:41;;;;;;;2.78;1.23;;;26.40;82.10;;;;;;4929891;29;20023;-75
2022/04/26 11:38:15;;;;;;;1.10;1.00;;;26.00;81.70;;;;;;4913663;29;20070;-75
2022/04/26 11:40:47;;;;;;;1.90;0.82;;;25.50;82.10;;;;;;4911330;29;20103;-78
2022/04/26 11:43:31;;;;;;;3.85;2.05;;;24.70;85.30;;;;;;4901240;29;20029;-75
2022/04/26 11:45:58;;;;;;;1.17;0.90;;;23.80;85.90;;;;;;4906921;29;20044;-75
2022/04/26 11:48:33;;;;;;;2.60;1.30;;;23.50;88.70;;;;;;4925280;29;20036;-74
2022/04/26 11:51:00;;;;;;;1.38;0.80;;;23.40;87.80;;;;;;4909480;29;20032;-74
2022/04/26 11:53:31;;;;;;;1.30;1.05;;;23.30;87.90;;;;;;4917780;29;20028;-78
2022/04/26 11:56:02;;;;;;;2.88;0.95;;;23.50;89.30;;;;;;4910326;29;20559;-74
2022/04/26 11:58:28;;;;;;;1.50;1.17;;;23.20;87.60;;;;;;4929136;29;20111;-74
2022/04/26 12:00:56;;;;;;;1.70;0.75;;;23.20;88.50;;;;;;4913152;29;20521;-74
2022/04/26 12:03:32;;;;;;;1.00;0.57;;;23.00;89.80;;;;;;4909857;29;20780;-74
2022/04/26 12:06:07;;;;;;;0.65;0.60;;;22.80;88.90;;;;;;4932997;29;20126;-78
2022/04/26 12:08:42;;;;;;;2.78;1.00;;;22.90;87.30;;;;;;4896234;29;20132;-73
2022/04/26 12:11:20;;;;;;;1.98;0.95;;;23.00;87.00;;;;;;4909953;29;20106;-73
2022/04/26 12:13:57;;;;;;;2.78;1.05;;;23.20;86.60;;;;;;4897359;29;20521;-74
2022/04/26 12:16:23;;;;;;;4.20;1.48;;;23.30;87.10;;;;;;4897659;29;20071;-74
2022/04/26 12:18:53;;;;;;;2.03;0.77;;;23.20;87.00;;;;;;4903646;29;20056;-79
2022/04/26 12:21:20;;;;;;;4.45;0.82;;;23.20;87.30;;;;;;4914848;29;20035;-73
2022/04/26 12:23:46;;;;;;;0.95;0.70;;;23.50;89.30;;;;;;4926741;29;20035;-73
2022/04/26 12:26:13;;;;;;;1.13;0.82;;;23.60;86.40;;;;;;4897539;29;20060;-78
2022/04/26 12:28:47;;;;;;;0.75;0.70;;;23.40;86.60;;;;;;4897401;29;20673;-74
2022/04/26 12:31:25;;;;;;;1.10;0.40;;;23.30;87.90;;;;;;4897142;29;20032;-78
2022/04/26 12:34:12;;;;;;;0.85;0.80;;;23.30;90.30;;;;;;4896751;29;20053;-78
2022/04/26 12:36:56;;;;;;;0.98;0.82;;;23.10;88.10;;;;;;4903166;29;20020;-73
2022/04/26 12:39:26;;;;;;;1.00;0.60;;;23.00;86.70;;;;;;4935151;29;20023;-79
2022/04/26 12:41:55;;;;;;;1.55;0.68;;;22.90;87.00;;;;;;4913642;29;20036;-74
2022/04/26 12:44:23;;;;;;;5.65;0.70;;;23.10;86.80;;;;;;4899666;29;20043;-73
2022/04/26 12:50:28;;;;;;;0.45;0.45;;;23.00;85.70;;;;;;4916150;29;20021;-78
2022/04/26 12:50:33;;;;;;;0.60;0.60;;;22.90;85.70;;;;;;4918978;29;20215;-73
2022/04/26 12:53:00;;;;;;;2.90;0.25;;;22.80;85.40;;;;;;4928465;29;20399;-78
2022/04/26 12:55:36;;;;;;;0.60;0.32;;;22.90;85.40;;;;;;4904847;29;20039;-73
2022/04/26 12:58:09;;;;;;;1.55;0.93;;;23.10;84.80;;;;;;4915265;29;20526;-73
2022/04/26 13:00:53;;;;;;;0.47;0.47;;;23.00;84.00;;;;;;4915230;29;20036;-79
2022/04/26 13:03:22;;;;;;;0.65;0.52;;;23.20;87.00;;;;;;4895991;29;20029;-73
2022/04/26 13:05:54;;;;;;;0.68;0.40;;;23.50;87.30;;;;;;4896103;29;20531;-73
2022/04/26 13:08:20;;;;;;;1.15;0.70;;;23.60;84.70;;;;;;4914801;29;20028;-73
2022/04/26 13:10:47;;;;;;;1.40;0.80;;;23.80;83.20;;;;;;4908287;29;20057;-79
2022/04/26 13:13:14;;;;;;;0.90;0.57;;;23.60;85.40;;;;;;4893674;29;20028;-78
2022/04/26 13:15:44;;;;;;;0.50;0.50;;;23.30;84.30;;;;;;4893097;29;20491;-73
2022/04/26 13:18:12;;;;;;;0.82;0.77;;;23.30;85.40;;;;;;4910361;29;20451;-73
2022/04/26 13:20:38;;;;;;;0.45;0.45;;;23.10;84.70;;;;;;4914713;29;20032;-73
2022/04/26 13:23:04;;;;;;;0.50;0.47;;;23.10;85.00;;;;;;4914994;29;20099;-79
2022/04/26 13:25:30;;;;;;;1.40;0.68;;;23.30;87.10;;;;;;4914669;29;20029;-78
2022/04/26 13:27:56;;;;;;;0.63;0.63;;;23.20;85.20;;;;;;4915340;29;20456;-74
2022/04/26 13:30:21;;;;;;;0.77;0.77;;;23.00;84.60;;;;;;4910849;29;20099;-78
2022/04/26 13:32:48;;;;;;;1.98;0.60;;;23.00;85.30;;;;;;4913148;29;20496;-73
2022/04/26 13:35:13;;;;;;;2.60;0.73;;;23.30;86.00;;;;;;4914185;29;20138;-73
2022/04/26 13:37:39;;;;;;;0.30;0.30;;;23.30;83.80;;;;;;4922114;29;20058;-79
2022/04/26 13:40:06;;;;;;;1.48;0.60;;;23.50;86.00;;;;;;4933389;29;20027;-73
2022/04/26 13:42:35;;;;;;;2.00;0.98;;;23.60;84.00;;;;;;4932153;29;20378;-73
2022/04/26 13:45:00;;;;;;;0.50;0.50;;;23.50;85.80;;;;;;4921031;29;20468;-74
2022/04/26 13:47:26;;;;;;;0.47;0.40;;;23.70;85.50;;;;;;4926719;29;20506;-78
2022/04/26 13:49:52;;;;;;;0.60;0.60;;;24.00;84.20;;;;;;4925295;29;20043;-77
2022/04/26 13:52:20;;;;;;;4.68;1.65;;;24.00;84.80;;;;;;4910047;29;20435;-73
2022/04/26 13:54:46;;;;;;;0.47;0.45;;;24.00;83.80;;;;;;4909250;29;20066;-78
2022/04/26 13:57:12;;;;;;;1.30;0.95;;;24.10;83.70;;;;;;4906699;29;20032;-73
2022/04/26 13:59:37;;;;;;;1.08;0.68;;;24.00;85.40;;;;;;4909361;29;20491;-73
2022/04/26 14:02:05;;;;;;;1.50;1.17;;;23.90;83.50;;;;;;4910872;29;20039;-77
2022/04/26 14:04:30;;;;;;;0.70;0.50;;;23.80;84.10;;;;;;4906624;29;20502;-78
2022/04/26 14:06:56;;;;;;;0.50;0.47;;;24.00;84.50;;;;;;4909563;29;20028;-74
2022/04/26 14:09:22;;;;;;;0.55;0.55;;;24.20;82.70;;;;;;4904486;29;20047;-77
2022/04/26 14:11:48;;;;;;;8.27;1.55;;;24.30;83.00;;;;;;4906223;29;20028;-73
2022/04/26 14:22:32;;;;;;;2.40;0.98;;;26.50;78.40;;;;;;4924837;29;20035;-74
2022/04/26 14:25:08;;;;;;;1.23;0.60;;;27.10;78.90;;;;;;4919752;29;20084;-74
2022/04/26 14:27:35;;;;;;;1.05;0.80;;;27.70;77.80;;;;;;4895207;29;20052;-80
2022/04/26 14:30:01;;;;;;;0.90;0.85;;;28.10;76.10;;;;;;4894640;29;20025;-79
2022/04/26 14:32:26;;;;;;;1.27;0.73;;;28.10;76.60;;;;;;4893901;29;20032;-75
2022/04/26 14:34:53;;;;;;;2.80;1.40;;;28.10;78.80;;;;;;4924881;29;20042;-74
2022/04/26 14:37:19;;;;;;;1.58;0.70;;;27.20;78.20;;;;;;4932597;29;20027;-74
2022/04/26 14:39:45;;;;;;;1.30;0.85;;;26.60;80.70;;;;;;4910052;29;20480;-74
2022/04/26 14:42:11;;;;;;;1.73;0.77;;;26.10;78.80;;;;;;4897305;29;20428;-78
2022/04/26 14:44:37;;;;;;;0.95;0.75;;;26.40;80.60;;;;;;4900052;29;20028;-78
2022/04/26 14:47:03;;;;;;;2.75;0.70;;;26.90;79.90;;;;;;4894595;29;20516;-74
2022/04/26 14:49:33;;;;;;;0.85;0.65;;;27.70;79.40;;;;;;4905396;29;20403;-74
2022/04/26 14:51:59;;;;;;;1.58;1.08;;;27.70;77.30;;;;;;4912596;29;20032;-74
2022/04/26 14:54:25;;;;;;;1.25;0.75;;;28.10;76.80;;;;;;4894827;29;20043;-79
2022/04/26 14:56:51;;;;;;;1.38;1.27;;;27.90;77.20;;;;;;4894637;29;20029;-74
2022/04/26 14:59:22;;;;;;;1.30;0.77;;;28.10;75.00;;;;;;4899871;29;20084;-75
2022/04/26 15:01:49;;;;;;;1.40;0.80;;;28.10;77.20;;;;;;4903432;29;20436;-74
2022/04/26 15:04:22;;;;;;;3.08;1.65;;;27.90;75.40;;;;;;4910863;29;20055;-75
2022/04/26 15:06:49;;;;;;;1.42;0.75;;;28.00;76.60;;;;;;4924336;29;20021;-78
2022/04/26 15:17:30;;;;;;;0.90;0.90;;;28.20;75.70;;;;;;4919687;29;20040;-78
2022/04/26 15:19:56;;;;;;;1.50;0.82;;;28.00;76.70;;;;;;4929981;29;20020;-77
2022/04/26 15:22:23;;;;;;;1.33;1.00;;;28.00;78.10;;;;;;4900806;29;20036;-79
2022/04/26 15:24:50;;;;;;;0.63;0.63;;;27.90;76.00;;;;;;4895341;29;20052;-74
2022/04/26 15:27:18;;;;;;;1.02;0.98;;;28.10;78.30;;;;;;4895857;29;20060;-74
2022/04/26 15:29:44;;;;;;;1.00;0.90;;;27.70;76.30;;;;;;4901419;29;20067;-74
2022/04/26 15:32:10;;;;;;;0.57;0.57;;;27.20;76.50;;;;;;4915076;29;20107;-74
2022/04/26 15:34:37;;;;;;;2.40;0.65;;;26.70;76.40;;;;;;4917799;29;20084;-78
2022/04/26 15:37:03;;;;;;;4.13;0.98;;;26.10;77.50;;;;;;4915260;29;20833;-73
2022/04/26 15:39:29;;;;;;;1.27;0.98;;;25.50;80.00;;;;;;4923663;29;20107;-78
2022/04/26 15:41:56;;;;;;;1.63;0.57;;;24.80;78.60;;;;;;4914503;29;20116;-73
2022/04/26 15:44:22;;;;;;;1.85;1.00;;;24.40;80.80;;;;;;4930525;29;20491;-73
2022/04/26 15:46:50;;;;;;;0.47;0.47;;;24.20;80.90;;;;;;4933671;29;20028;-78
2022/04/26 15:49:18;;;;;;;1.65;0.47;;;24.20;81.80;;;;;;4932671;29;20016;-73
2022/04/26 15:51:44;;;;;;;0.43;0.35;;;24.20;80.30;;;;;;4933954;29;20042;-73
2022/04/26 15:54:10;;;;;;;0.70;0.40;;;24.20;81.10;;;;;;4910230;29;20025;-73
2022/04/26 15:56:36;;;;;;;0.98;0.60;;;24.10;81.40;;;;;;4895484;29;20043;-73
2022/04/26 15:59:02;;;;;;;0.40;0.30;;;24.10;81.10;;;;;;4908090;29;20518;-73
2022/04/26 16:01:28;;;;;;;1.63;0.82;;;24.00;81.10;;;;;;4932428;29;20090;-78
2022/04/26 16:03:54;;;;;;;0.52;0.30;;;23.80;80.50;;;;;;4904303;29;20371;-73
2022/04/26 16:06:20;;;;;;;0.65;0.65;;;23.80;81.10;;;;;;4929192;29;20454;-74
2022/04/26 16:08:46;;;;;;;0.43;0.40;;;23.60;80.80;;;;;;4933349;29;20052;-73
2022/04/26 16:22:08;;;;;;;0.30;0.30;;;23.50;80.70;;;;;;4937480;29;20039;-74
2022/04/26 16:24:38;;;;;;;0.45;0.43;;;23.50;81.10;;;;;;4938045;29;20028;-78
2022/04/26 16:27:05;;;;;;;0.65;0.28;;;23.00;81.30;;;;;;4936517;29;20143;-78
2022/04/26 16:29:31;;;;;;;3.35;0.57;;;23.10;82.80;;;;;;4928778;29;20373;-73
2022/04/26 16:31:57;;;;;;;0.40;0.35;;;23.20;82.60;;;;;;4900043;29;20107;-73
2022/04/26 16:34:23;;;;;;;0.30;0.30;;;23.20;83.50;;;;;;4898707;29;20424;-74
2022/04/26 16:36:48;;;;;;;0.50;0.50;;;23.10;83.30;;;;;;4899210;29;20039;-73
2022/04/26 16:39:14;;;;;;;2.92;0.60;;;23.20;82.30;;;;;;4936116;29;20035;-79
2022/04/26 16:41:40;;;;;;;1.00;0.90;;;23.10;82.20;;;;;;4937835;29;20038;-74
2022/04/26 16:44:07;;;;;;;0.65;0.40;;;23.10;82.50;;;;;;4936682;29;20380;-73
2022/04/26 16:46:33;;;;;;;1.10;0.65;;;22.90;82.90;;;;;;4937717;29;20031;-76
2022/04/26 16:49:02;;;;;;;1.27;0.50;;;22.80;83.50;;;;;;4919127;29;20028;-75
2022/04/26 16:51:30;;;;;;;0.63;0.60;;;22.60;83.20;;;;;;4917554;29;20024;-75
2022/04/26 16:53:58;;;;;;;1.55;0.75;;;22.50;84.20;;;;;;4914195;29;20088;-75
2022/04/26 16:56:24;;;;;;;0.32;0.32;;;22.30;83.60;;;;;;4899680;29;20060;-80
2022/04/26 16:58:49;;;;;;;0.30;0.30;;;22.20;83.10;;;;;;4898549;29;20060;-75
2022/04/26 17:01:15;;;;;;;1.20;0.80;;;22.00;84.50;;;;;;4899590;29;20036;-75
2022/04/26 17:03:41;;;;;;;0.45;0.40;;;21.90;84.20;;;;;;4899561;29;20021;-75
2022/04/26 17:06:07;;;;;;;0.63;0.30;;;21.70;84.10;;;;;;4899869;29;20063;-75
2022/04/26 17:08:33;;;;;;;1.15;0.45;;;21.70;84.30;;;;;;4898277;29;20020;-75
2022/04/26 17:13:45;;;;;;;0.30;0.30;;;21.50;84.30;;;;;;4899591;29;20036;-75
2022/04/26 17:16:12;;;;;;;0.70;0.45;;;21.50;84.60;;;;;;4899438;29;20047;-75
2022/04/26 17:18:37;;;;;;;1.48;0.40;;;21.40;85.80;;;;;;4899225;29;20021;-76